Terminal Aerodrome Forecast
Issued by NWS Northern Indiana

Home | Current Version | Previous Version | Text Only | Print | Product List | Glossary On
Versions: 1 2 3 4 5 6 7 8 9 10 11 12 13 14 15 16 17
000
FTUS43 KIWX 030500
TAFFWA
TAF
KFWA 030531Z 0306/0406 13004KT P6SM BKN100 OVC200
     FM031200 13012KT 3SM -SNPL OVC050
     FM031500 17015KT 1SM -FZRA BR OVC006 WS020/20035KT
     FM031900 21016G23KT 1SM -RA BR OVC015 WS020/23050KT
     FM040300 27013G18KT 5SM -SN BR OVC012=

USA.gov is the U.S. government's official web portal to all federal, state and local government web resources and services.